Seymour Johnson Air Force Base
KGSB : now visible

Airfield :











YOU CAN JOIN US ON...

 
LOGIN :

Register | Disclaimer

   EN    FR    IT 

 









Legend :    VFR   Marginal VFR   IFR   Intensive IFR   Very Intensive IFR
Visi :
Ceiling :
>= 8 km
>= 3000ft
5 to 8 km
1000 to 3000 ft
1500m to 5 km
500 to 1000 ft
800 to 1500m
200 to 500 ft
< 800m
< 200 ft
Symbols :   Thunderstorms  Fog  Heavy snow  Heavy precipitations  Wind > 20 kt






- Airport Elevation : 109 ft


KGSB - Seymour Johnson Air Force Base

EXPIRED METARs :
  • 201956Z AUTO 10005KT 10SM FEW075 23/23 A2985 RMK AO2 LTG DSNT E AND S RAE19RAB19E19 TSE08 SLP110 P0002 T02310229 $

TAF TAF KGSB
Valid from the 20 at 20:00 until the 22 at 02:00 UTC


202000Z 2020/2202 23010G15KT 8000 -SHRA BKN050 QNH2985INS
TEMPO 2020/2024 19010G21KT 9999 VCTS SCT030CB
TEMPO 2103/2106 18015G25KT 3200 TSRA BKN020CB
BECMG 2110/2111 09009KT 8000 -SHRA BKN015 QNH2971INS
BECMG 2117/2118 26015G26KT 9999 NSW FEW050 QNH2976INS TX32/2119Z TN23/2110Z LAST NO AMDS AFT 2020 NEXT 2104
KZDC FIR / North America



MET'MAP, your aeronautical weather chart ! - Copyright ORBIFLY December 2007 - Disclaimer

ORBIFLY MET'MAP TEAM :

Programming & Development : Alexandra Zaïnal
Concept & original design : Baudouin d'Aumeries
Assistance for programming : Marc-Olivier Méhu
Technical & hardware support : Manuel Goepfert

Contact : metmap@orbifly.com




SOURCES & CREDITS :

   NOAA       Earth
Advisory